Terminal Aerodrome Forecast
Issued by NWS Huntsville, AL

Home | Current Version | Previous Version | Text Only | Print | Product List | Glossary On
Versions: 1 2 3 4 5 6 7 8 9 10 11 12 13 14 15 16
000
FTUS44 KHUN 281915 AAA
TAFMSL
TAF AMD
KMSL 281915Z 2819/2918 22010G18KT P6SM -RA BKN015 OVC025
      TEMPO 2819/2821 4SM TSRA BKN008 BKN025CB
     FM282100 24007KT P6SM VCSH BKN025 OVC040
     FM282300 24005KT P6SM BKN015 OVC025
     FM290500 24005KT 5SM BR VCSH BKN008 OVC015
     FM291300 25005KT P6SM BKN015=

USA.gov is the U.S. government's official web portal to all federal, state and local government web resources and services.